Time;durP1;ratioP1;P1;durP2;ratioP2;P2;SDS_P1;SDS_P2;PMS_P1;PMS_P2;Temp;Humidity;BMP_temperature;BMP_pressure;BME280_temperature;BME280_humidity;BME280_pressure;Samples;Min_cycle;Max_cycle;Signal;HPM_P1;HPM_P2
2024/02/02 00:00:16;;;;;;;;;;;;;;;18.46;58.12;101397.16;7398495;19;2034;-80
2024/02/02 00:02:44;;;;;;;;;;;;;;;18.41;58.19;101393.97;7399918;19;1125;-72
2024/02/02 00:05:13;;;;;;;;;;;;;;;18.48;58.15;101389.00;7396622;19;1945;-72
2024/02/02 00:07:41;;;;;;;;;;;;;;;18.50;58.11;101397.75;7397506;19;1862;-80
2024/02/02 00:10:10;;;;;;;;;;;;;;;18.47;58.28;101408.72;7398934;19;1413;-71
2024/02/02 00:12:39;;;;;;;;;;;;;;;18.50;58.10;101403.13;7398805;19;1805;-79
2024/02/02 00:15:15;;;;;;;;;;;;;;;18.52;57.80;101394.97;7394676;19;1510;-71
2024/02/02 00:17:44;;;;;;;;;;;;;;;18.46;58.16;101401.66;7399362;19;999;-72
2024/02/02 00:20:14;;;;;;;;;;;;;;;18.47;57.96;101400.69;7403877;19;1856;-71
2024/02/02 00:22:42;;;;;;;;;;;;;;;18.51;58.05;101398.66;7403779;19;1831;-72
2024/02/02 00:25:12;;;;;;;;;;;;;;;18.52;57.93;101409.22;7405158;19;1190;-80
2024/02/02 00:27:41;;;;;;;;;;;;;;;18.49;57.99;101388.03;7406253;19;1430;-79
2024/02/02 00:30:13;;;;;;;;;;;;;;;18.52;58.15;101389.63;7408224;19;1403;-73
2024/02/02 00:32:44;;;;;;;;;;;;;;;18.52;57.97;101392.31;7406739;19;1059;-71
2024/02/02 00:35:12;;;;;;;;;;;;;;;18.51;57.95;101393.28;7402522;19;1937;-80
2024/02/02 00:37:41;;;;;;;;;;;;;;;18.51;57.82;101391.44;7405181;19;1389;-73
2024/02/02 00:40:11;;;;;;;;;;;;;;;18.49;57.68;101391.56;7402644;19;1868;-72
2024/02/02 00:42:41;;;;;;;;;;;;;;;18.47;57.90;101398.00;7402908;19;1675;-80
2024/02/02 00:45:12;;;;;;;;;;;;;;;18.47;58.00;101398.00;7401948;19;1822;-80
2024/02/02 00:47:41;;;;;;;;;;;;;;;18.43;58.02;101399.22;7404707;19;1329;-72
2024/02/02 00:50:11;;;;;;;;;;;;;;;18.42;58.16;101394.81;7399776;19;1511;-71
2024/02/02 00:52:39;;;;;;;;;;;;;;;18.42;57.94;101394.81;7406003;19;1838;-80
2024/02/02 00:55:08;;;;;;;;;;;;;;;18.46;57.76;101391.81;7406585;19;1934;-79
2024/02/02 00:57:38;;;;;;;;;;;;;;;18.45;58.01;101384.75;7405548;19;1528;-80
2024/02/02 01:00:10;;;;;;;;;;;;;;;18.47;57.91;101387.31;7403427;19;1845;-79
2024/02/02 01:02:41;;;;;;;;;;;;;;;18.51;57.81;101385.25;7406509;19;1465;-80
2024/02/02 01:05:11;;;;;;;;;;;;;;;18.58;57.55;101387.34;7405241;19;1878;-72
2024/02/02 01:07:39;;;;;;;;;;;;;;;18.59;57.40;101378.31;7402010;19;1441;-79
2024/02/02 01:10:12;;;;;;;;;;;;;;;18.57;57.43;101366.88;7401407;19;1453;-74
2024/02/02 01:12:41;;;;;;;;;;;;;;;18.56;57.46;101359.81;7402470;19;980;-72
2024/02/02 01:15:10;;;;;;;;;;;;;;;18.54;57.59;101360.91;7404711;19;1608;-80
2024/02/02 01:17:45;;;;;;;;;;;;;;;18.56;57.46;101362.50;7402500;19;1723;-80
2024/02/02 01:20:13;;;;;;;;;;;;;;;18.52;57.53;101370.88;7403953;19;1834;-72
2024/02/02 01:22:42;;;;;;;;;;;;;;;18.56;57.43;101365.19;7404881;19;1005;-79
2024/02/02 01:25:11;;;;;;;;;;;;;;;18.53;57.44;101365.41;7404879;19;987;-72
2024/02/02 01:27:40;;;;;;;;;;;;;;;18.50;57.63;101360.28;7403219;19;1524;-80
2024/02/02 01:30:11;;;;;;;;;;;;;;;18.43;57.76;101364.41;7403179;19;1525;-72
2024/02/02 01:32:42;;;;;;;;;;;;;;;18.39;57.86;101358.44;7399905;19;1851;-80
2024/02/02 01:35:11;;;;;;;;;;;;;;;18.45;57.79;101349.06;7404430;19;1532;-71
2024/02/02 01:37:39;;;;;;;;;;;;;;;18.29;57.94;101362.78;7404975;19;1475;-79
2024/02/02 01:40:08;;;;;;;;;;;;;;;17.99;58.71;101371.28;7403227;19;1842;-79
2024/02/02 01:42:37;;;;;;;;;;;;;;;17.79;59.36;101362.03;7404646;19;1776;-74
2024/02/02 01:45:06;;;;;;;;;;;;;;;17.70;59.44;101363.56;7402771;19;1456;-71
2024/02/02 01:47:34;;;;;;;;;;;;;;;17.58;59.88;101356.44;7402721;19;1925;-72
2024/02/02 01:50:06;;;;;;;;;;;;;;;17.41;60.23;101339.78;7402588;19;1424;-72
2024/02/02 01:52:35;;;;;;;;;;;;;;;17.45;60.15;101351.13;7403196;19;1488;-72
2024/02/02 01:55:04;;;;;;;;;;;;;;;17.79;59.49;101365.56;7402431;19;1787;-80
2024/02/02 01:57:33;;;;;;;;;;;;;;;17.95;59.15;101359.13;7405473;19;1960;-80
2024/02/02 02:00:02;;;;;;;;;;;;;;;18.17;58.66;101367.25;7401736;19;1379;-71
2024/02/02 02:02:30;;;;;;;;;;;;;;;18.32;58.09;101362.53;7403419;19;1819;-80
2024/02/02 02:05:00;;;;;;;;;;;;;;;18.37;57.85;101360.38;7400659;19;1504;-71
2024/02/02 02:07:32;;;;;;;;;;;;;;;18.36;57.84;101364.00;7401404;19;1062;-80
2024/02/02 02:10:00;;;;;;;;;;;;;;;18.43;57.66;101364.41;7402766;19;1388;-72
2024/02/02 02:12:29;;;;;;;;;;;;;;;18.36;57.77;101344.41;7402832;19;1795;-80
2024/02/02 02:14:57;;;;;;;;;;;;;;;18.36;57.73;101347.09;7399840;19;1560;-72
2024/02/02 02:17:26;;;;;;;;;;;;;;;18.44;57.56;101353.59;7398920;19;1676;-80
2024/02/02 02:19:54;;;;;;;;;;;;;;;18.46;57.52;101361.47;7403184;19;993;-80
2024/02/02 02:22:25;;;;;;;;;;;;;;;18.37;57.47;101343.47;7402625;19;1865;-72
2024/02/02 02:24:54;;;;;;;;;;;;;;;18.46;57.35;101357.00;7403443;19;1819;-72
2024/02/02 02:27:22;;;;;;;;;;;;;;;18.47;57.44;101344.44;7403951;19;1378;-80
2024/02/02 02:29:51;;;;;;;;;;;;;;;18.44;57.56;101339.31;7399328;19;1841;-71
2024/02/02 02:32:20;;;;;;;;;;;;;;;18.47;57.29;101349.81;7401845;19;1492;-80
2024/02/02 02:34:48;;;;;;;;;;;;;;;18.46;57.47;101361.47;7398917;19;1497;-80
2024/02/02 02:37:16;;;;;;;;;;;;;;;18.45;57.51;101351.75;7402487;19;1435;-80
2024/02/02 02:39:47;;;;;;;;;;;;;;;18.45;57.35;101351.75;7402324;19;1842;-72
2024/02/02 02:42:16;;;;;;;;;;;;;;;18.50;57.19;101362.94;7399408;19;1851;-80
2024/02/02 02:44:45;;;;;;;;;;;;;;;18.47;57.41;101352.50;7400466;19;1070;-73
2024/02/02 02:47:13;;;;;;;;;;;;;;;18.43;57.38;101351.88;7403277;19;1035;-79
2024/02/02 02:49:42;;;;;;;;;;;;;;;18.46;57.38;101354.31;7399268;19;1496;-71
2024/02/02 02:52:10;;;;;;;;;;;;;;;18.42;57.49;101347.50;7400189;19;1941;-72
2024/02/02 02:54:40;;;;;;;;;;;;;;;18.45;57.34;101359.78;7400659;19;1475;-72
2024/02/02 02:57:12;;;;;;;;;;;;;;;18.40;57.42;101351.25;7400625;19;1865;-80
2024/02/02 02:59:40;;;;;;;;;;;;;;;18.41;57.55;101353.81;7399214;19;1492;-72
2024/02/02 03:02:08;;;;;;;;;;;;;;;18.45;57.21;101346.41;7396518;19;1854;-72
2024/02/02 03:04:37;;;;;;;;;;;;;;;18.47;57.13;101365.88;7400290;19;1442;-72
2024/02/02 03:07:06;;;;;;;;;;;;;;;18.54;57.21;101367.09;7398870;19;1601;-80
2024/02/02 03:09:36;;;;;;;;;;;;;;;18.52;57.05;101362.84;7398126;19;1783;-80
2024/02/02 03:12:05;;;;;;;;;;;;;;;18.44;57.37;101342.88;7398065;19;1032;-71
2024/02/02 03:14:36;;;;;;;;;;;;;;;18.49;57.24;101363.94;7396214;19;1750;-71
2024/02/02 03:17:05;;;;;;;;;;;;;;;18.45;57.28;101362.47;7399466;19;1053;-72
2024/02/02 03:19:33;;;;;;;;;;;;;;;18.56;57.03;101372.34;7400444;19;1561;-80
2024/02/02 03:22:02;;;;;;;;;;;;;;;18.52;57.19;101357.47;7399753;19;1854;-80
2024/02/02 03:24:30;;;;;;;;;;;;;;;18.53;57.06;101362.72;7399505;19;1854;-80
2024/02/02 03:26:59;;;;;;;;;;;;;;;18.50;57.17;101368.31;7398340;19;1465;-80
2024/02/02 03:29:27;;;;;;;;;;;;;;;18.53;57.24;101370.75;7397956;19;1082;-72
2024/02/02 03:31:58;;;;;;;;;;;;;;;18.54;57.08;101376.97;7398455;19;1846;-72
2024/02/02 03:34:27;;;;;;;;;;;;;;;18.29;57.89;101365.47;7398477;19;1933;-71
2024/02/02 03:36:55;;;;;;;;;;;;;;;17.97;58.53;101351.81;7396522;19;1814;-72
2024/02/02 03:39:24;;;;;;;;;;;;;;;17.79;59.63;101367.38;7394441;19;1437;-72
2024/02/02 03:41:53;;;;;;;;;;;;;;;17.69;59.86;101365.38;7396292;19;1858;-71
2024/02/02 03:44:22;;;;;;;;;;;;;;;17.64;60.03;101337.25;7396563;19;1066;-72
2024/02/02 03:46:50;;;;;;;;;;;;;;;17.63;60.07;101364.97;7394488;19;1063;-72
2024/02/02 03:49:22;;;;;;;;;;;;;;;17.60;60.32;101359.84;7395922;19;1129;-72
2024/02/02 03:51:51;;;;;;;;;;;;;;;17.55;60.50;101357.50;7398002;19;1914;-80
2024/02/02 03:54:19;;;;;;;;;;;;;;;17.49;60.55;101366.84;7398033;19;1536;-72
2024/02/02 03:56:48;;;;;;;;;;;;;;;17.44;60.49;101366.28;7403516;19;1846;-72
2024/02/02 03:59:16;;;;;;;;;;;;;;;17.39;60.78;101372.94;7405492;19;1628;-72
2024/02/02 04:01:45;;;;;;;;;;;;;;;17.30;61.13;101380.66;7401021;19;1838;-72
2024/02/02 04:04:13;;;;;;;;;;;;;;;17.82;59.56;101378.69;7403194;19;1490;-80
2024/02/02 04:06:44;;;;;;;;;;;;;;;17.69;59.55;101391.28;7406772;19;991;-80
2024/02/02 04:09:13;;;;;;;;;;;;;;;17.49;60.45;101374.84;7404897;19;1479;-80
2024/02/02 04:11:42;;;;;;;;;;;;;;;17.63;60.29;101376.53;7409444;19;1495;-72
2024/02/02 04:14:10;;;;;;;;;;;;;;;18.50;57.83;101392.41;7408174;19;1458;-80
2024/02/02 04:16:39;;;;;;;;;;;;;;;18.71;57.26;101402.47;7407772;19;1833;-80
2024/02/02 04:19:14;;;;;;;;;;;;;;;18.84;56.93;101393.41;7409042;19;974;-72
2024/02/02 04:21:45;;;;;;;;;;;;;;;18.98;56.60;101384.28;7402837;19;1854;-72
2024/02/02 04:24:14;;;;;;;;;;;;;;;18.95;56.59;101397.06;7406572;19;1520;-80
2024/02/02 04:26:42;;;;;;;;;;;;;;;18.75;57.00;101402.09;7407946;19;1262;-71
2024/02/02 04:29:11;;;;;;;;;;;;;;;18.68;57.10;101407.09;7403334;19;1858;-80
2024/02/02 04:31:39;;;;;;;;;;;;;;;18.59;57.39;101407.78;7407146;19;1448;-80
2024/02/02 04:34:08;;;;;;;;;;;;;;;18.61;57.49;101411.19;7408908;19;1336;-72
2024/02/02 04:36:47;;;;;;;;;;;;;;;18.56;57.56;101408.03;7405219;19;1039;-80
2024/02/02 04:39:15;;;;;;;;;;;;;;;18.60;57.28;101420.22;7407011;19;1228;-80
2024/02/02 04:41:44;;;;;;;;;;;;;;;18.69;57.24;101407.94;7405434;19;1825;-79
2024/02/02 04:44:12;;;;;;;;;;;;;;;18.65;57.26;101412.69;7406765;19;1629;-80
2024/02/02 04:46:41;;;;;;;;;;;;;;;18.59;57.25;101413.16;7407058;19;1625;-71
2024/02/02 04:49:09;;;;;;;;;;;;;;;18.67;57.15;101407.22;7408075;19;1093;-72
2024/02/02 04:51:38;;;;;;;;;;;;;;;18.84;56.49;101422.00;7404420;19;1607;-72
2024/02/02 04:54:09;;;;;;;;;;;;;;;18.81;56.74;101416.91;7405706;19;1434;-72
2024/02/02 04:56:37;;;;;;;;;;;;;;;18.96;56.57;101434.47;7401952;19;1036;-71
2024/02/02 04:59:06;;;;;;;;;;;;;;;19.01;56.49;101418.88;7405973;19;1137;-72
2024/02/02 05:01:34;;;;;;;;;;;;;;;18.82;54.38;101440.91;7402239;19;1805;-79
2024/02/02 05:04:02;;;;;;;;;;;;;;;18.83;53.93;101439.06;7404937;19;1472;-79
2024/02/02 05:06:32;;;;;;;;;;;;;;;18.90;53.99;101437.63;7400574;19;1281;-72
2024/02/02 05:09:01;;;;;;;;;;;;;;;18.95;53.92;101435.44;7405003;19;1145;-80
2024/02/02 05:11:32;;;;;;;;;;;;;;;18.89;54.24;101443.94;7402209;19;1920;-72
2024/02/02 05:14:01;;;;;;;;;;;;;;;18.73;54.43;101451.44;7403526;19;1114;-79
2024/02/02 05:16:30;;;;;;;;;;;;;;;18.60;54.89;101438.97;7402085;19;1849;-71
2024/02/02 05:18:58;;;;;;;;;;;;;;;18.59;54.96;101450.66;7404897;19;1404;-79
2024/02/02 05:21:27;;;;;;;;;;;;;;;18.71;54.96;101470.28;7403947;19;1852;-80
2024/02/02 05:23:56;;;;;;;;;;;;;;;18.67;55.10;101466.16;7403800;19;1611;-70
2024/02/02 05:26:25;;;;;;;;;;;;;;;18.64;55.04;101475.28;7400433;19;1813;-80
2024/02/02 05:28:56;;;;;;;;;;;;;;;18.78;54.83;101486.75;7401155;19;1179;-80
2024/02/02 05:31:25;;;;;;;;;;;;;;;18.65;55.25;101470.75;7402391;19;1548;-80
2024/02/02 05:33:53;;;;;;;;;;;;;;;18.64;55.27;101486.00;7403096;19;1251;-79
2024/02/02 05:36:24;;;;;;;;;;;;;;;18.63;55.62;101496.81;7403638;19;1493;-80
2024/02/02 05:38:52;;;;;;;;;;;;;;;18.68;55.50;101511.59;7402490;19;1477;-81
2024/02/02 05:41:29;;;;;;;;;;;;;;;18.65;55.36;101493.03;7400354;19;1836;-79
2024/02/02 05:44:00;;;;;;;;;;;;;;;18.65;55.42;101509.13;7401531;19;1650;-79
2024/02/02 05:46:28;;;;;;;;;;;;;;;18.71;55.51;101513.16;7400771;19;943;-79
2024/02/02 05:48:57;;;;;;;;;;;;;;;18.66;55.55;101500.13;7400662;19;1098;-80
2024/02/02 05:51:25;;;;;;;;;;;;;;;18.64;55.55;101518.13;7284642;19;12908;-79
2024/02/02 05:53:54;;;;;;;;;;;;;;;18.60;55.64;101535.41;7400757;19;1026;-79
2024/02/02 05:56:23;;;;;;;;;;;;;;;18.61;55.80;101545.16;7403258;19;1360;-80
2024/02/02 05:58:51;;;;;;;;;;;;;;;18.83;55.38;101551.63;7399826;19;1852;-79
2024/02/02 06:01:23;;;;;;;;;;;;;;;18.68;55.60;101548.22;7403087;19;1651;-79
2024/02/02 06:03:51;;;;;;;;;;;;;;;18.65;55.71;101557.34;7400244;19;1626;-79
2024/02/02 06:06:19;;;;;;;;;;;;;;;18.69;55.82;101566.84;7398429;19;1565;-79
2024/02/02 06:08:48;;;;;;;;;;;;;;;18.63;56.07;101559.28;7402258;19;1302;-79
2024/02/02 06:11:17;;;;;;;;;;;;;;;18.70;55.72;101573.06;7402770;19;1274;-80
2024/02/02 06:13:46;;;;;;;;;;;;;;;18.72;55.65;101570.28;7402649;19;1987;-80
2024/02/02 06:16:14;;;;;;;;;;;;;;;18.67;55.81;101570.63;7402777;19;1472;-80
2024/02/02 06:18:45;;;;;;;;;;;;;;;18.69;55.73;101569.53;7402793;19;1517;-81
2024/02/02 06:21:14;;;;;;;;;;;;;;;18.63;55.64;101570.00;7403547;19;1525;-80
2024/02/02 06:23:42;;;;;;;;;;;;;;;18.63;55.85;101564.63;7400912;19;1834;-72
2024/02/02 06:26:11;;;;;;;;;;;;;;;18.62;55.89;101588.84;7402634;19;1313;-80
2024/02/02 06:28:39;;;;;;;;;;;;;;;18.63;55.89;101570.00;7401204;19;1250;-72
2024/02/02 06:31:08;;;;;;;;;;;;;;;18.78;55.61;101581.41;7401653;19;1501;-72
2024/02/02 06:33:36;;;;;;;;;;;;;;;18.69;55.81;101582.94;7399184;19;1607;-72
2024/02/02 06:36:08;;;;;;;;;;;;;;;18.69;55.99;101585.63;7400413;19;1258;-72
2024/02/02 06:38:36;;;;;;;;;;;;;;;18.70;55.94;101591.81;7401043;19;1721;-72
2024/02/02 06:41:06;;;;;;;;;;;;;;;18.73;55.96;101585.41;7399654;19;1444;-72
2024/02/02 06:43:34;;;;;;;;;;;;;;;18.74;55.89;101589.78;7396468;19;1851;-72
2024/02/02 06:46:06;;;;;;;;;;;;;;;18.75;55.76;101580.78;7398524;19;1258;-72
2024/02/02 06:48:34;;;;;;;;;;;;;;;18.74;55.74;101582.63;7397718;19;1321;-71
2024/02/02 06:51:04;;;;;;;;;;;;;;;18.72;55.76;101578.31;7398438;19;1695;-72
2024/02/02 06:53:35;;;;;;;;;;;;;;;18.66;55.78;101591.22;7398244;19;1564;-72
2024/02/02 06:56:04;;;;;;;;;;;;;;;18.66;55.82;101612.66;7400231;19;1143;-72
2024/02/02 06:58:41;;;;;;;;;;;;;;;18.64;55.91;101606.53;7399041;19;1102;-71
2024/02/02 07:01:10;;;;;;;;;;;;;;;18.59;56.09;101602.50;7399442;19;1584;-72
2024/02/02 07:03:38;;;;;;;;;;;;;;;18.58;56.09;101603.44;7397866;19;1851;-71
2024/02/02 07:06:08;;;;;;;;;;;;;;;18.63;56.16;101612.84;7397320;19;1420;-72
2024/02/02 07:08:39;;;;;;;;;;;;;;;18.75;55.45;101603.06;7399111;19;1400;-72
2024/02/02 07:11:17;;;;;;;;;;;;;;;18.65;55.89;101618.97;7397574;19;1541;-72
2024/02/02 07:13:48;;;;;;;;;;;;;;;18.63;56.02;101630.75;7398244;19;1151;-72
2024/02/02 07:16:22;;;;;;;;;;;;;;;18.56;56.35;101646.44;7398194;19;1325;-72
2024/02/02 07:18:50;;;;;;;;;;;;;;;18.67;56.13;101642.97;7397994;19;1408;-72
2024/02/02 07:21:19;;;;;;;;;;;;;;;18.74;55.89;101638.00;7395775;19;1849;-72
2024/02/02 07:23:50;;;;;;;;;;;;;;;18.78;55.86;101626.09;7396836;19;1838;-72
2024/02/02 07:26:28;;;;;;;;;;;;;;;18.72;55.87;101621.19;7395217;19;1023;-72
2024/02/02 07:28:56;;;;;;;;;;;;;;;18.74;55.85;101619.25;7395972;19;1282;-72
2024/02/02 07:31:42;;;;;;;;;;;;;;;18.67;56.10;101625.06;7397136;19;1500;-72
2024/02/02 07:34:25;;;;;;;;;;;;;;;18.65;55.98;101632.34;7397744;19;1174;-72
2024/02/02 07:36:53;;;;;;;;;;;;;;;18.62;56.08;101635.28;7399677;19;1187;-73
2024/02/02 07:39:28;;;;;;;;;;;;;;;18.58;56.19;101631.09;7399426;19;1468;-73
2024/02/02 07:41:57;;;;;;;;;;;;;;;18.58;56.26;101652.53;7395229;19;1570;-73
2024/02/02 07:44:27;;;;;;;;;;;;;;;18.60;56.16;101650.59;7397891;19;1588;-72
2024/02/02 07:46:57;;;;;;;;;;;;;;;18.63;55.99;101645.00;7395390;19;1498;-71
2024/02/02 07:49:25;;;;;;;;;;;;;;;18.61;56.24;101635.38;7398047;19;1156;-72
2024/02/02 07:51:54;;;;;;;;;;;;;;;18.71;56.07;101648.97;7396731;19;1907;-71
2024/02/02 07:54:25;;;;;;;;;;;;;;;18.80;55.62;101640.25;7394773;19;1834;-72
2024/02/02 07:56:53;;;;;;;;;;;;;;;18.68;55.77;101647.34;7397085;19;1733;-72
2024/02/02 07:59:22;;;;;;;;;;;;;;;18.82;55.47;101657.97;7392884;19;1333;-72
2024/02/02 08:01:51;;;;;;;;;;;;;;;18.80;55.37;101659.91;7392494;19;1495;-72
2024/02/02 08:04:20;;;;;;;;;;;;;;;18.76;55.90;101673.56;7395072;19;1854;-72
2024/02/02 08:06:48;;;;;;;;;;;;;;;18.89;55.58;101679.78;7396335;19;1215;-72
2024/02/02 08:09:17;;;;;;;;;;;;;;;18.95;55.33;101671.28;7397536;19;1168;-72
2024/02/02 08:11:48;;;;;;;;;;;;;;;19.05;55.52;101666.97;7394765;19;1392;-72
2024/02/02 08:14:17;;;;;;;;;;;;;;;19.05;55.48;101656.25;7397911;19;940;-72
2024/02/02 08:16:45;;;;;;;;;;;;;;;19.22;55.20;101672.91;7396912;19;1612;-72
2024/02/02 08:19:13;;;;;;;;;;;;;;;19.29;54.97;101676.81;7393787;19;1495;-72
2024/02/02 08:21:44;;;;;;;;;;;;;;;19.23;55.02;101683.50;7394577;19;1484;-72
2024/02/02 08:24:13;;;;;;;;;;;;;;;19.26;55.09;101682.44;7392046;19;1838;-72
2024/02/02 08:26:41;;;;;;;;;;;;;;;19.28;55.26;101688.53;7394905;19;1350;-72
2024/02/02 08:29:16;;;;;;;;;;;;;;;19.20;55.34;101690.91;7396081;19;1309;-72
2024/02/02 08:31:45;;;;;;;;;;;;;;;19.16;55.38;101684.94;7392136;19;946;-71
2024/02/02 08:34:13;;;;;;;;;;;;;;;19.23;55.20;101704.09;7394067;19;1927;-71
2024/02/02 08:36:42;;;;;;;;;;;;;;;19.19;55.38;101713.34;7395762;19;1083;-71
2024/02/02 08:39:12;;;;;;;;;;;;;;;19.14;55.33;101707.47;7395890;19;1424;-72
2024/02/02 08:41:41;;;;;;;;;;;;;;;19.13;55.38;101719.16;7401716;19;1630;-71
2024/02/02 08:44:16;;;;;;;;;;;;;;;19.08;55.73;101709.63;7400770;19;1849;-71
2024/02/02 08:46:47;;;;;;;;;;;;;;;19.10;55.57;101720.25;7401902;19;1760;-72
2024/02/02 08:49:23;;;;;;;;;;;;;;;19.13;55.42;101711.97;7402341;19;1104;-71
2024/02/02 08:51:53;;;;;;;;;;;;;;;19.13;55.41;101722.69;7401985;19;1494;-71
2024/02/02 08:54:33;;;;;;;;;;;;;;;19.18;55.51;101730.38;7401179;19;1575;-72
2024/02/02 08:57:16;;;;;;;;;;;;;;;19.06;55.64;101711.56;7401313;19;1267;-71
2024/02/02 08:59:52;;;;;;;;;;;;;;;19.10;55.65;101724.75;7400556;19;1357;-71
2024/02/02 09:02:29;;;;;;;;;;;;;;;19.22;55.45;101738.13;7400395;19;1507;-72
2024/02/02 09:05:02;;;;;;;;;;;;;;;19.17;55.58;101742.94;7398870;19;1825;-72
2024/02/02 09:07:30;;;;;;;;;;;;;;;19.19;55.42;101742.84;7400519;19;1753;-71
2024/02/02 09:09:59;;;;;;;;;;;;;;;19.17;55.45;101750.16;7399895;19;1436;-72
2024/02/02 09:12:32;;;;;;;;;;;;;;;19.27;55.48;101751.19;7397417;19;1400;-71
2024/02/02 09:15:01;;;;;;;;;;;;;;;19.23;55.55;101755.06;7401455;19;1586;-72
2024/02/02 09:17:33;;;;;;;;;;;;;;;19.15;55.61;101758.28;7402197;19;1062;-71
2024/02/02 09:20:05;;;;;;;;;;;;;;;19.20;55.69;101755.25;7402087;19;977;-72
2024/02/02 09:22:34;;;;;;;;;;;;;;;19.27;55.50;101743.97;7401334;19;1846;-72
2024/02/02 09:25:02;;;;;;;;;;;;;;;18.75;55.40;101683.44;7401378;19;1093;-79
2024/02/02 09:27:32;;;;;;;;;;;;;;;19.18;55.35;101754.53;7402220;19;1570;-81
2024/02/02 09:30:01;;;;;;;;;;;;;;;19.20;55.51;101764.19;7398699;19;1933;-72
2024/02/02 09:32:30;;;;;;;;;;;;;;;19.16;55.62;101764.50;7402739;19;1353;-72
2024/02/02 09:35:03;;;;;;;;;;;;;;;19.19;55.55;101738.31;7402366;19;865;-80
2024/02/02 09:37:39;;;;;;;;;;;;;;;19.18;55.83;101757.19;7402824;19;1260;-81
2024/02/02 09:40:24;;;;;;;;;;;;;;;19.23;55.54;101765.78;7401426;19;1999;-80
2024/02/02 09:43:05;;;;;;;;;;;;;;;19.14;55.66;101753.03;7399984;19;1849;-81
2024/02/02 09:45:42;;;;;;;;;;;;;;;19.11;55.54;101753.28;7401936;19;1158;-81
2024/02/02 09:48:21;;;;;;;;;;;;;;;19.26;55.61;101777.16;7401499;19;1302;-80
2024/02/02 09:50:53;;;;;;;;;;;;;;;19.30;55.48;101758.13;7399415;19;1453;-80
2024/02/02 09:53:34;;;;;;;;;;;;;;;19.28;55.51;101763.63;7400237;19;1285;-80
2024/02/02 09:56:07;;;;;;;;;;;;;;;19.24;55.62;101746.06;7403152;19;1423;-81
2024/02/02 09:58:41;;;;;;;;;;;;;;;19.22;55.68;101753.34;7403404;19;1571;-79
2024/02/02 10:01:13;;;;;;;;;;;;;;;19.26;55.70;101760.22;7402997;19;1107;-80
2024/02/02 10:03:48;;;;;;;;;;;;;;;19.27;55.67;101746.66;7400295;19;1923;-80
2024/02/02 10:06:23;;;;;;;;;;;;;;;19.26;55.71;101722.66;7398903;19;1810;-80
2024/02/02 10:09:01;;;;;;;;;;;;;;;19.36;55.67;101736.22;7399881;19;1495;-81
2024/02/02 10:11:57;;;;;;;;;;;;;;;19.28;55.73;101726.09;7401712;19;1332;-80
2024/02/02 10:14:45;;;;;;;;;;;;;;;19.34;55.71;101731.00;7398502;19;1213;-80
2024/02/02 10:17:20;;;;;;;;;;;;;;;19.30;55.71;101742.91;7399304;19;1487;-80
2024/02/02 10:20:06;;;;;;;;;;;;;;;19.31;55.70;101720.47;7398013;19;1928;-72
2024/02/02 10:22:46;;;;;;;;;;;;;;;19.27;55.79;101740.44;7400045;19;1420;-72
2024/02/02 10:25:30;;;;;;;;;;;;;;;19.24;55.84;101738.84;7396336;19;1874;-72
2024/02/02 10:28:08;;;;;;;;;;;;;;;19.30;55.70;101729.50;7400666;19;1014;-72
2024/02/02 10:30:41;;;;;;;;;;;;;;;19.30;55.72;101728.63;7399672;19;1490;-72
2024/02/02 10:33:28;;;;;;;;;;;;;;;19.27;55.69;101732.41;7400029;19;1857;-72
2024/02/02 10:36:00;;;;;;;;;;;;;;;19.28;55.92;101744.84;7398247;19;1485;-72
2024/02/02 10:38:34;;;;;;;;;;;;;;;19.18;55.56;101738.44;7399072;19;1601;-73
2024/02/02 10:41:11;;;;;;;;;;;;;;;18.98;55.56;101745.25;7398950;19;1562;-72
2024/02/02 10:46:38;;;;;;;;;;;;;;;18.97;54.96;101739.06;7399097;19;835;-80
2024/02/02 10:49:18;;;;;;;;;;;;;;;19.11;54.65;101726.47;7400279;19;1287;-81
2024/02/02 10:51:56;;;;;;;;;;;;;;;19.19;54.53;101724.94;7399290;19;1230;-80
2024/02/02 10:54:34;;;;;;;;;;;;;;;19.23;54.54;101720.19;7398350;19;1323;-80
2024/02/02 10:57:15;;;;;;;;;;;;;;;19.26;54.49;101723.50;7396928;19;1494;-80
2024/02/02 10:59:50;;;;;;;;;;;;;;;19.36;54.39;101726.38;7399102;19;1019;-81
2024/02/02 11:02:28;;;;;;;;;;;;;;;19.54;54.44;101715.22;7397791;19;1803;-72
2024/02/02 11:05:02;;;;;;;;;;;;;;;19.92;53.69;101720.38;7395242;19;1959;-72
2024/02/02 11:07:38;;;;;;;;;;;;;;;20.09;52.21;101715.53;7395870;19;1740;-72
2024/02/02 11:10:08;;;;;;;;;;;;;;;20.35;51.70;101710.78;7395567;19;1415;-72
2024/02/02 11:12:45;;;;;;;;;;;;;;;20.46;51.47;101714.34;7395349;19;1277;-81
2024/02/02 11:15:22;;;;;;;;;;;;;;;20.40;51.61;101730.94;7396701;19;1755;-79
2024/02/02 11:17:56;;;;;;;;;;;;;;;20.45;51.34;101726.06;7394846;19;2405;-79
2024/02/02 11:20:32;;;;;;;;;;;;;;;20.11;52.06;101703.69;7399563;19;1505;-81
2024/02/02 11:23:05;;;;;;;;;;;;;;;20.00;52.56;101706.38;7398856;19;1745;-78
2024/02/02 11:25:39;;;;;;;;;;;;;;;20.05;52.86;101715.78;7397836;19;1833;-81
2024/02/02 11:28:16;;;;;;;;;;;;;;;20.11;53.01;101719.78;7399136;19;1027;-81
2024/02/02 11:30:53;;;;;;;;;;;;;;;20.17;52.63;101703.19;7397639;19;1836;-80
2024/02/02 11:33:29;;;;;;;;;;;;;;;20.02;52.44;101709.78;7398827;19;1490;-79
2024/02/02 11:36:05;;;;;;;;;;;;;;;19.90;51.74;101706.22;7397146;19;1932;-80
2024/02/02 11:38:42;;;;;;;;;;;;;;;19.78;51.73;101702.66;7398181;19;915;-72
2024/02/02 11:41:13;;;;;;;;;;;;;;;19.84;51.65;101704.00;7393645;19;1408;-73
2024/02/02 11:43:45;;;;;;;;;;;;;;;19.86;51.65;101704.75;7397285;19;1841;-80
2024/02/02 11:46:15;;;;;;;;;;;;;;;19.97;51.44;101701.22;7396198;19;1481;-72
2024/02/02 11:48:44;;;;;;;;;;;;;;;19.62;52.09;101697.56;7398577;19;1055;-80
2024/02/02 11:51:13;;;;;;;;;;;;;;;19.41;52.48;101705.41;7396651;19;1929;-80
2024/02/02 11:53:47;;;;;;;;;;;;;;;19.34;52.83;101712.22;7399761;19;1619;-80
2024/02/02 11:56:19;;;;;;;;;;;;;;;19.27;53.27;101708.28;7397057;19;1474;-72
2024/02/02 11:58:54;;;;;;;;;;;;;;;19.21;53.40;101708.72;7397906;19;1650;-71
2024/02/02 12:01:29;;;;;;;;;;;;;;;19.22;53.44;101715.81;7398223;19;1805;-71
2024/02/02 12:04:09;;;;;;;;;;;;;;;19.24;53.38;101713.88;7396744;19;1830;-78
2024/02/02 12:06:38;;;;;;;;;;;;;;;19.15;53.40;101710.03;7401047;19;1401;-71
2024/02/02 12:09:14;;;;;;;;;;;;;;;19.17;53.54;101708.09;7399366;19;1406;-71
2024/02/02 12:11:45;;;;;;;;;;;;;;;19.09;53.65;101713.16;7394199;19;1420;-71
2024/02/02 12:14:21;;;;;;;;;;;;;;;19.39;53.15;101707.34;7396999;19;1820;-72
2024/02/02 12:16:50;;;;;;;;;;;;;;;19.14;53.64;101726.22;7404441;19;1695;-72
2024/02/02 12:19:19;;;;;;;;;;;;;;;19.03;54.11;101722.50;7402827;19;1070;-71
2024/02/02 12:21:48;;;;;;;;;;;;;;;18.92;54.26;101706.38;7404536;19;1828;-72
2024/02/02 12:24:19;;;;;;;;;;;;;;;18.87;54.58;101721.94;7403283;19;1847;-72
2024/02/02 12:26:48;;;;;;;;;;;;;;;18.93;53.62;101721.47;7403359;19;1852;-72
2024/02/02 12:29:19;;;;;;;;;;;;;;;18.86;54.14;101726.44;7402074;19;1841;-72
2024/02/02 12:31:47;;;;;;;;;;;;;;;18.86;54.41;101734.47;7400737;19;951;-72
2024/02/02 12:34:16;;;;;;;;;;;;;;;18.97;54.23;101739.06;7401526;19;1956;-72
2024/02/02 12:36:44;;;;;;;;;;;;;;;19.14;54.26;101728.91;7401599;19;1793;-72
2024/02/02 12:39:13;;;;;;;;;;;;;;;19.19;53.89;101722.25;7402620;19;1833;-72
2024/02/02 12:41:41;;;;;;;;;;;;;;;19.10;54.06;101732.78;7400838;19;1888;-73
2024/02/02 12:44:10;;;;;;;;;;;;;;;19.00;54.48;101732.59;7399245;19;1945;-72
2024/02/02 12:46:47;;;;;;;;;;;;;;;19.00;54.43;101733.47;7404331;19;924;-72
2024/02/02 12:49:17;;;;;;;;;;;;;;;18.95;54.28;101740.13;7402668;19;1006;-73
2024/02/02 12:51:46;;;;;;;;;;;;;;;18.91;54.47;101739.50;7403032;19;1710;-72
2024/02/02 12:54:18;;;;;;;;;;;;;;;18.81;54.86;101746.50;7400140;19;1865;-72
2024/02/02 12:56:46;;;;;;;;;;;;;;;18.71;55.34;101754.31;7399455;19;1548;-72
2024/02/02 12:59:17;;;;;;;;;;;;;;;18.74;55.32;101774.66;7400676;19;955;-73
2024/02/02 13:01:49;;;;;;;;;;;;;;;18.76;55.33;101762.88;7401500;19;1719;-72
2024/02/02 13:04:16;;;;;;;;;;;;;;;18.97;54.98;101755.13;7402735;19;1857;-73
2024/02/02 13:06:45;;;;;;;;;;;;;;;18.84;54.64;101773.06;7404108;19;1401;-72
2024/02/02 13:09:29;;;;;;;;;;;;;;;18.89;54.68;101765.56;7405264;19;1013;-72